Time;durP1;ratioP1;P1;durP2;ratioP2;P2;SDS_P1;SDS_P2;PMS_P1;PMS_P2;Temp;Humidity;BMP_temperature;BMP_pressure;BME280_temperature;BME280_humidity;BME280_pressure;Samples;Min_cycle;Max_cycle;Signal;HPM_P1;HPM_P2
2022/07/25 00:00:44;;;;;;;;;;;;;;;22.53;40.78;101414.19;5032782;28;19921;-50
2022/07/25 00:03:09;;;;;;;;;;;;;;;22.55;40.83;101419.38;5034435;28;20004;-54
2022/07/25 00:05:35;;;;;;;;;;;;;;;22.52;40.82;101416.00;5033780;28;19927;-50
2022/07/25 00:08:00;;;;;;;;;;;;;;;22.47;40.74;101406.72;5036020;28;19936;-49
2022/07/25 00:10:25;;;;;;;;;;;;;;;22.45;40.97;101404.22;5036165;28;19924;-50
2022/07/25 00:12:51;;;;;;;;;;;;;;;22.45;40.75;101404.22;5039985;28;19917;-53
2022/07/25 00:15:16;;;;;;;;;;;;;;;22.45;40.79;101409.56;5035347;28;20033;-52
2022/07/25 00:17:42;;;;;;;;;;;;;;;22.44;41.00;101407.03;5035785;28;19978;-54
2022/07/25 00:20:07;;;;;;;;;;;;;;;22.40;40.80;101409.13;5041206;28;19917;-53
2022/07/25 00:22:33;;;;;;;;;;;;;;;22.36;41.09;101410.41;5038796;28;19917;-52
2022/07/25 00:24:58;;;;;;;;;;;;;;;22.34;41.13;101404.38;5038316;28;19932;-51
2022/07/25 00:27:24;;;;;;;;;;;;;;;22.32;41.07;101403.66;5037977;28;19913;-49
2022/07/25 00:29:49;;;;;;;;;;;;;;;22.28;41.07;101402.31;5030850;28;19913;-49
2022/07/25 00:32:14;;;;;;;;;;;;;;;22.23;41.15;101400.91;5035621;28;19924;-49
2022/07/25 00:34:40;;;;;;;;;;;;;;;22.21;41.09;101396.69;5039521;28;19927;-53
2022/07/25 00:37:05;;;;;;;;;;;;;;;22.18;41.28;101394.31;5046566;28;21031;-49
2022/07/25 00:39:31;;;;;;;;;;;;;;;22.14;41.56;101393.78;5039277;28;20335;-49
2022/07/25 00:41:56;;;;;;;;;;;;;;;22.12;41.59;101392.22;5034932;28;19923;-54
2022/07/25 00:44:26;;;;;;;;;;;;;;;22.10;41.43;101397.72;5037209;28;20326;-49
2022/07/25 00:46:51;;;;;;;;;;;;;;;22.07;41.40;101401.56;5035844;28;19928;-56
2022/07/25 00:49:17;;;;;;;;;;;;;;;22.06;41.53;101394.50;5036078;28;20381;-49
2022/07/25 00:51:43;;;;;;;;;;;;;;;22.05;41.67;101391.97;5038569;28;20390;-48
2022/07/25 00:54:08;;;;;;;;;;;;;;;22.03;41.88;101391.25;5040948;28;20019;-48
2022/07/25 00:56:34;;;;;;;;;;;;;;;22.01;41.94;101390.56;5034849;28;20212;-49
2022/07/25 00:58:59;;;;;;;;;;;;;;;21.98;41.80;101388.19;5030024;28;19924;-53
2022/07/25 01:01:25;;;;;;;;;;;;;;;21.98;41.83;101382.84;5031122;28;20302;-54
2022/07/25 01:03:50;;;;;;;;;;;;;;;21.99;41.96;101385.38;5032121;28;19928;-49
2022/07/25 01:06:15;;;;;;;;;;;;;;;22.01;41.97;101385.22;5036366;28;19920;-49
2022/07/25 01:08:41;;;;;;;;;;;;;;;21.97;41.62;101386.50;5037505;28;20363;-52
2022/07/25 01:11:07;;;;;;;;;;;;;;;21.95;41.89;101380.47;5037133;28;20011;-49
2022/07/25 01:13:33;;;;;;;;;;;;;;;21.96;41.80;101380.28;5043659;28;19932;-49
2022/07/25 01:15:58;;;;;;;;;;;;;;;21.93;42.05;101378.75;5042331;28;19917;-48
2022/07/25 01:18:24;;;;;;;;;;;;;;;21.87;41.78;101379.34;5041231;28;19913;-50
2022/07/25 01:20:49;;;;;;;;;;;;;;;21.82;42.09;101376.28;5035388;28;20425;-49
2022/07/25 01:23:14;;;;;;;;;;;;;;;21.85;42.24;101372.47;5038144;28;19924;-51
2022/07/25 01:25:40;;;;;;;;;;;;;;;21.82;42.28;101368.25;5044329;28;19925;-51
2022/07/25 01:28:05;;;;;;;;;;;;;;;21.81;42.17;101366.56;5038627;28;19923;-50
2022/07/25 01:30:31;;;;;;;;;;;;;;;21.84;42.18;101368.94;5038481;28;19916;-50
2022/07/25 01:32:56;;;;;;;;;;;;;;;21.83;42.20;101361.91;5037102;28;20323;-51
2022/07/25 01:35:21;;;;;;;;;;;;;;;21.80;42.42;101367.56;5037021;28;20015;-50
2022/07/25 01:37:47;;;;;;;;;;;;;;;21.78;42.31;101358.81;5042959;28;20322;-49
2022/07/25 01:40:12;;;;;;;;;;;;;;;21.75;42.61;101365.31;5043098;28;19916;-49
2022/07/25 01:42:38;;;;;;;;;;;;;;;21.73;42.37;101353.03;5037498;28;20412;-49
2022/07/25 01:45:03;;;;;;;;;;;;;;;21.70;42.41;101356.03;5040825;28;19948;-48
2022/07/25 01:47:29;;;;;;;;;;;;;;;21.66;42.90;101360.00;5037581;28;19917;-49
2022/07/25 01:49:54;;;;;;;;;;;;;;;21.61;42.67;101347.06;5037320;28;19924;-56
2022/07/25 01:52:19;;;;;;;;;;;;;;;21.62;42.63;101354.09;5037602;28;19966;-49
2022/07/25 01:54:45;;;;;;;;;;;;;;;21.60;42.95;101351.53;5043377;28;19929;-49
2022/07/25 01:57:10;;;;;;;;;;;;;;;21.59;42.71;101346.31;5034847;28;20383;-56
2022/07/25 01:59:37;;;;;;;;;;;;;;;21.55;42.98;101343.09;5039648;28;20380;-49
2022/07/25 02:02:02;;;;;;;;;;;;;;;21.55;42.92;101342.25;5028721;28;19919;-49
2022/07/25 02:04:28;;;;;;;;;;;;;;;21.53;42.83;101350.44;5037069;28;19917;-49
2022/07/25 02:06:53;;;;;;;;;;;;;;;21.50;43.18;101345.34;5036159;28;20336;-51
2022/07/25 02:09:18;;;;;;;;;;;;;;;21.50;42.81;101340.00;5044896;28;20383;-49
2022/07/25 02:11:44;;;;;;;;;;;;;;;21.48;43.08;101344.66;5037033;28;19932;-49
2022/07/25 02:14:09;;;;;;;;;;;;;;;21.46;43.15;101334.09;5042203;28;19921;-49
2022/07/25 02:16:34;;;;;;;;;;;;;;;21.46;42.83;101335.91;5037675;28;20031;-49
2022/07/25 02:19:00;;;;;;;;;;;;;;;21.46;42.94;101323.41;5043060;28;19924;-51
2022/07/25 02:21:25;;;;;;;;;;;;;;;21.49;42.89;101327.59;5041808;28;19924;-49
2022/07/25 02:23:50;;;;;;;;;;;;;;;21.52;42.64;101329.13;5033620;28;20443;-49
2022/07/25 02:26:16;;;;;;;;;;;;;;;21.55;42.69;101327.03;5042256;28;20657;-49
2022/07/25 02:28:41;;;;;;;;;;;;;;;21.58;42.75;101328.56;5039715;28;20410;-48
2022/07/25 02:31:07;;;;;;;;;;;;;;;21.61;42.35;101325.63;5034245;28;20384;-54
2022/07/25 02:33:32;;;;;;;;;;;;;;;21.64;42.47;101321.81;5034374;28;19924;-49
2022/07/25 02:35:57;;;;;;;;;;;;;;;21.66;42.45;101311.78;5037976;28;19921;-49
2022/07/25 02:38:22;;;;;;;;;;;;;;;21.69;42.40;101304.28;5043380;28;20360;-48
2022/07/25 02:40:49;;;;;;;;;;;;;;;21.73;41.91;101307.50;5039355;28;19924;-51
2022/07/25 02:43:14;;;;;;;;;;;;;;;21.76;41.89;101307.22;5040687;28;19916;-52
2022/07/25 02:45:40;;;;;;;;;;;;;;;21.79;41.99;101306.94;5040858;28;19947;-55
2022/07/25 02:48:05;;;;;;;;;;;;;;;21.81;41.72;101304.94;5046864;28;20429;-52
2022/07/25 02:50:31;;;;;;;;;;;;;;;21.85;41.67;101300.13;5038232;28;19913;-54
2022/07/25 02:52:56;;;;;;;;;;;;;;;21.86;41.80;101305.31;5043629;28;19913;-53
2022/07/25 02:55:21;;;;;;;;;;;;;;;21.90;41.62;101300.53;5035810;28;19921;-51
2022/07/25 02:57:47;;;;;;;;;;;;;;;21.95;41.49;101300.09;5036623;28;19936;-52
2022/07/25 03:00:13;;;;;;;;;;;;;;;21.98;41.52;101299.78;5034321;28;20387;-51
2022/07/25 03:02:38;;;;;;;;;;;;;;;22.02;41.35;101303.84;5039394;28;20403;-51
2022/07/25 03:05:07;;;;;;;;;;;;;;;22.05;41.34;101300.84;5035494;28;19923;-52
2022/07/25 03:07:33;;;;;;;;;;;;;;;22.07;41.05;101305.09;5035227;28;19928;-50
2022/07/25 03:09:58;;;;;;;;;;;;;;;22.11;41.09;101302.09;5040060;28;19913;-51
2022/07/25 03:12:23;;;;;;;;;;;;;;;22.14;41.10;101299.13;5041122;28;19920;-51
2022/07/25 03:14:49;;;;;;;;;;;;;;;;;;5036289;28;19921;-50
2022/07/25 03:17:14;;;;;;;;;;;;;;;22.19;40.96;101297.66;5036224;28;19913;-50
2022/07/25 03:19:40;;;;;;;;;;;;;;;22.21;40.97;101294.84;5034143;28;19946;-50
2022/07/25 03:22:05;;;;;;;;;;;;;;;22.20;40.94;101288.63;5036016;28;19931;-52
2022/07/25 03:24:31;;;;;;;;;;;;;;;22.20;40.86;101287.81;5039686;28;20396;-52
2022/07/25 03:26:59;;;;;;;;;;;;;;;22.18;40.97;101284.41;5035018;28;19963;-53
2022/07/25 03:29:24;;;;;;;;;;;;;;;22.16;40.74;101279.19;5038259;28;19912;-52
2022/07/25 03:31:49;;;;;;;;;;;;;;;22.15;41.13;101284.72;5037392;28;19971;-54
2022/07/25 03:34:15;;;;;;;;;;;;;;;22.13;41.09;101275.97;5036217;28;20189;-51
2022/07/25 03:36:40;;;;;;;;;;;;;;;22.11;41.08;101276.16;5032879;28;19921;-52
2022/07/25 03:39:05;;;;;;;;;;;;;;;22.12;41.02;101277.84;5036708;28;19924;-48
2022/07/25 03:41:31;;;;;;;;;;;;;;;22.10;40.76;101276.28;5035256;28;19929;-51
2022/07/25 03:43:56;;;;;;;;;;;;;;;22.06;41.07;101268.56;5040721;28;20006;-51
2022/07/25 03:46:22;;;;;;;;;;;;;;;22.05;40.79;101264.19;5040385;28;19917;-52
2022/07/25 03:48:47;;;;;;;;;;;;;;;22.04;40.90;101261.66;5037945;28;19968;-53
2022/07/25 03:51:12;;;;;;;;;;;;;;;22.05;41.17;101252.63;5040207;28;19924;-51
2022/07/25 03:54:00;;;;;;;;;;;;;;;22.06;41.23;101257.00;5042168;28;20299;-49
2022/07/25 03:56:23;;;;;;;;;;;;;;;22.09;41.24;101254.00;5040065;28;19917;-51
2022/07/25 03:58:48;;;;;;;;;;;;;;;22.12;41.06;101255.53;5033858;28;19924;-52
2022/07/25 04:01:13;;;;;;;;;;;;;;;22.14;40.99;101257.09;5039592;28;20011;-53
2022/07/25 04:03:39;;;;;;;;;;;;;;;22.15;40.73;101253.41;5038691;28;19917;-49
2022/07/25 04:06:04;;;;;;;;;;;;;;;22.15;40.87;101248.06;5042253;28;19912;-49
2022/07/25 04:08:29;;;;;;;;;;;;;;;22.13;40.80;101249.19;5033091;28;19912;-49
2022/07/25 04:10:55;;;;;;;;;;;;;;;22.10;41.09;101253.03;5033784;28;19912;-49
2022/07/25 04:13:20;;;;;;;;;;;;;;;22.08;40.99;101257.69;5035758;28;20433;-50
2022/07/25 04:15:45;;;;;;;;;;;;;;;22.07;41.30;101250.63;5032538;28;19932;-51
2022/07/25 04:18:10;;;;;;;;;;;;;;;22.05;41.18;101248.13;5044154;28;19917;-49
2022/07/25 04:20:36;;;;;;;;;;;;;;;22.05;41.30;101241.91;5039746;28;19928;-50
2022/07/25 04:23:01;;;;;;;;;;;;;;;22.04;41.14;101245.59;5042781;28;19968;-49
2022/07/25 04:25:27;;;;;;;;;;;;;;;22.04;41.24;101242.91;5038522;28;19925;-49
2022/07/25 04:27:52;;;;;;;;;;;;;;;22.05;41.19;101231.19;5037635;28;19916;-49
2022/07/25 04:30:18;;;;;;;;;;;;;;;22.04;41.49;101234.88;5039296;28;19916;-50
2022/07/25 04:32:43;;;;;;;;;;;;;;;22.03;41.34;101228.69;5039623;28;19928;-51
2022/07/25 04:35:08;;;;;;;;;;;;;;;22.03;41.71;101223.31;5037121;28;20391;-50
2022/07/25 04:37:35;;;;;;;;;;;;;;;22.05;41.58;101221.34;5034427;28;19917;-50
2022/07/25 04:40:00;;;;;;;;;;;;;;;22.07;41.73;101219.34;5032995;28;20391;-50
2022/07/25 04:42:26;;;;;;;;;;;;;;;22.08;41.81;101210.28;5039489;28;19959;-50
2022/07/25 04:44:52;;;;;;;;;;;;;;;22.12;41.71;101210.84;5044112;28;19928;-51
2022/07/25 04:47:17;;;;;;;;;;;;;;;22.15;41.69;101207.00;5042920;28;19960;-54
2022/07/25 04:49:42;;;;;;;;;;;;;;;22.18;41.45;101198.66;5041401;28;19917;-52
2022/07/25 04:52:08;;;;;;;;;;;;;;;22.21;41.51;101199.19;5041987;28;19958;-56
2022/07/25 04:54:33;;;;;;;;;;;;;;;22.22;41.65;101192.00;5037177;28;20261;-53
2022/07/25 04:56:59;;;;;;;;;;;;;;;22.24;41.36;101195.34;5046511;28;20402;-50
2022/07/25 04:59:24;;;;;;;;;;;;;;;22.27;41.63;101195.03;5042153;28;19967;-49
2022/07/25 05:01:49;;;;;;;;;;;;;;;22.32;41.29;101194.56;5038830;28;20310;-53
2022/07/25 05:04:15;;;;;;;;;;;;;;;22.34;41.43;101187.22;5041113;28;19958;-50
2022/07/25 05:06:40;;;;;;;;;;;;;;;22.36;41.42;101178.06;5040416;28;19979;-50
2022/07/25 05:09:05;;;;;;;;;;;;;;;22.39;41.32;101187.59;5038316;28;19921;-51
2022/07/25 05:11:31;;;;;;;;;;;;;;;22.44;41.33;101173.75;5044345;28;19975;-50
2022/07/25 05:13:56;;;;;;;;;;;;;;;22.46;40.99;101166.41;5045312;28;19925;-50
2022/07/25 05:16:21;;;;;;;;;;;;;;;22.49;41.14;101163.41;5045179;28;19920;-50
2022/07/25 05:18:46;;;;;;;;;;;;;;;22.52;40.99;101163.94;5040372;28;19916;-50
2022/07/25 05:21:12;;;;;;;;;;;;;;;22.55;41.14;101165.47;5044358;28;20552;-49
2022/07/25 05:23:39;;;;;;;;;;;;;;;22.60;41.11;101159.66;5036418;28;19948;-49
2022/07/25 05:26:05;;;;;;;;;;;;;;;22.63;40.99;101160.16;5044103;28;19951;-52
2022/07/25 05:28:30;;;;;;;;;;;;;;;22.67;40.99;101160.69;5036869;28;20034;-53
2022/07/25 05:30:55;;;;;;;;;;;;;;;22.69;41.12;101153.31;5041110;28;19975;-51
2022/07/25 05:33:20;;;;;;;;;;;;;;;22.73;40.87;101149.31;5040577;28;20383;-51
2022/07/25 05:35:46;;;;;;;;;;;;;;;22.75;40.72;101147.34;5037974;28;19932;-52
2022/07/25 05:38:11;;;;;;;;;;;;;;;22.78;40.77;101149.66;5047371;28;19921;-53
2022/07/25 05:40:36;;;;;;;;;;;;;;;22.81;40.90;101146.69;5043437;28;19916;-52
2022/07/25 05:43:02;;;;;;;;;;;;;;;22.85;40.74;101141.81;5039745;28;19920;-51
2022/07/25 05:45:27;;;;;;;;;;;;;;;22.89;40.68;101148.56;5040197;28;20308;-52
2022/07/25 05:47:52;;;;;;;;;;;;;;;22.93;40.30;101144.56;5039094;28;20372;-51
2022/07/25 05:50:18;;;;;;;;;;;;;;;22.98;40.64;101146.75;5041114;28;19943;-50
2022/07/25 05:52:43;;;;;;;;;;;;;;;23.02;40.49;101148.13;5039062;28;19917;-49
2022/07/25 05:55:09;;;;;;;;;;;;;;;23.07;40.73;101145.78;5038417;28;20296;-49
2022/07/25 05:57:34;;;;;;;;;;;;;;;23.10;40.34;101140.09;5042106;28;19955;-52
2022/07/25 06:00:00;;;;;;;;;;;;;;;23.14;40.33;101141.47;5044125;28;19967;-50
2022/07/25 06:02:25;;;;;;;;;;;;;;;23.19;40.25;101137.47;5027432;28;19928;-49
2022/07/25 06:04:50;;;;;;;;;;;;;;;23.24;40.28;101140.50;5031869;28;20023;-49
2022/07/25 06:07:16;;;;;;;;;;;;;;;23.27;40.21;101130.31;5036448;28;19920;-49
2022/07/25 06:09:41;;;;;;;;;;;;;;;23.31;40.26;101125.44;5037966;28;19912;-49
2022/07/25 06:12:06;;;;;;;;;;;;;;;23.33;40.30;101120.75;5040063;28;19916;-53
2022/07/25 06:14:32;;;;;;;;;;;;;;;23.37;40.08;101121.25;5029660;28;20801;-50
2022/07/25 06:16:57;;;;;;;;;;;;;;;23.40;40.09;101116.41;5037452;28;19928;-49
2022/07/25 06:19:23;;;;;;;;;;;;;;;23.43;40.24;101118.75;5039512;28;19978;-49
2022/07/25 06:21:48;;;;;;;;;;;;;;;23.46;40.01;101109.53;5038270;28;19921;-50
2022/07/25 06:24:14;;;;;;;;;;;;;;;23.51;39.89;101109.88;5030401;28;20003;-51
2022/07/25 06:26:39;;;;;;;;;;;;;;;23.56;39.58;101110.25;5033429;28;19921;-53
2022/07/25 06:29:04;;;;;;;;;;;;;;;23.59;39.92;101106.38;5038073;28;19921;-50
2022/07/25 06:31:30;;;;;;;;;;;;;;;23.62;39.73;101106.03;5037753;28;20360;-50
2022/07/25 06:33:55;;;;;;;;;;;;;;;23.65;39.58;101105.72;5035552;28;19974;-52
2022/07/25 06:36:20;;;;;;;;;;;;;;;23.70;39.57;101113.28;5040661;28;20016;-50
2022/07/25 06:38:46;;;;;;;;;;;;;;;23.72;39.56;101106.72;5034694;28;19971;-54
2022/07/25 06:41:14;;;;;;;;;;;;;;;23.76;39.50;101096.47;5038989;28;19917;-49
2022/07/25 06:43:40;;;;;;;;;;;;;;;23.80;39.38;101097.81;5043725;28;19945;-49
2022/07/25 06:46:05;;;;;;;;;;;;;;;23.85;39.17;101089.25;5044547;28;19917;-50
2022/07/25 06:48:30;;;;;;;;;;;;;;;23.89;39.00;101093.28;5047699;28;19916;-49
2022/07/25 06:50:56;;;;;;;;;;;;;;;23.93;38.99;101081.22;5039384;28;19932;-50
2022/07/25 06:53:21;;;;;;;;;;;;;;;23.97;38.94;101081.75;5048375;28;20362;-50
2022/07/25 06:55:47;;;;;;;;;;;;;;;24.01;38.83;101078.53;5042934;28;19920;-50
2022/07/25 06:58:12;;;;;;;;;;;;;;;24.06;38.92;101080.72;5044982;28;19917;-50
2022/07/25 07:00:38;;;;;;;;;;;;;;;24.12;38.52;101079.22;5046083;28;19920;-49
2022/07/25 07:03:03;;;;;;;;;;;;;;;24.17;38.49;101074.16;5044940;28;19931;-50
2022/07/25 07:05:29;;;;;;;;;;;;;;;24.20;38.59;101066.56;5040990;28;19955;-50
2022/07/25 07:07:55;;;;;;;;;;;;;;;24.24;38.19;101066.25;5044424;28;19913;-51
2022/07/25 07:10:21;;;;;;;;;;;;;;;24.28;38.22;101063.03;5043734;28;20054;-50
2022/07/25 07:12:46;;;;;;;;;;;;;;;24.32;38.36;101048.25;5038922;28;20388;-52
2022/07/25 07:15:11;;;;;;;;;;;;;;;24.37;38.00;101045.03;5041944;28;19928;-51
2022/07/25 07:17:37;;;;;;;;;;;;;;;24.42;38.14;101034.59;5040666;28;20016;-51
2022/07/25 07:20:03;;;;;;;;;;;;;;;24.46;38.17;101035.09;5043995;28;19935;-51
2022/07/25 07:22:28;;;;;;;;;;;;;;;24.51;38.01;101032.72;5040990;28;20279;-53
2022/07/25 07:24:54;;;;;;;;;;;;;;;24.57;37.84;101029.34;5038910;28;20384;-51
2022/07/25 07:27:22;;;;;;;;;;;;;;;24.63;37.85;101028.63;5043477;28;19913;-51
2022/07/25 07:29:47;;;;;;;;;;;;;;;24.69;37.68;101029.78;5045432;28;19924;-52
2022/07/25 07:32:13;;;;;;;;;;;;;;;24.75;37.61;101022.91;5043581;28;19953;-51
2022/07/25 07:34:38;;;;;;;;;;;;;;;24.80;37.63;101012.47;5043946;28;19964;-51
2022/07/25 07:37:03;;;;;;;;;;;;;;;24.85;37.48;101015.47;5041546;28;19923;-52
2022/07/25 07:39:29;;;;;;;;;;;;;;;24.91;37.48;101013.91;5044498;28;19924;-52
2022/07/25 07:41:54;;;;;;;;;;;;;;;24.96;37.44;101015.06;5040005;28;20326;-52
2022/07/25 07:44:19;;;;;;;;;;;;;;;25.02;37.48;101007.31;5045975;28;19998;-52
2022/07/25 07:46:45;;;;;;;;;;;;;;;25.07;37.44;101004.88;5046498;28;19913;-54
2022/07/25 07:49:10;;;;;;;;;;;;;;;25.11;37.52;101001.66;5041976;28;19920;-51
2022/07/25 07:51:35;;;;;;;;;;;;;;;25.18;37.33;101000.97;5038650;28;19916;-51
2022/07/25 07:56:44;;;;;;;;;;;;;;;25.30;37.01;100991.44;5044889;28;19924;-49
2022/07/25 07:59:10;;;;;;;;;;;;;;;25.36;37.09;100984.50;5046547;28;19917;-53
2022/07/25 08:01:35;;;;;;;;;;;;;;;25.41;37.09;100987.50;5043728;28;19909;-50
2022/07/25 08:04:01;;;;;;;;;;;;;;;25.46;37.02;100979.75;5039896;28;20019;-51
2022/07/25 08:06:26;;;;;;;;;;;;;;;25.52;36.93;100979.00;5044485;28;19927;-50
2022/07/25 08:08:52;;;;;;;;;;;;;;;25.59;36.85;100972.91;5043796;28;20280;-50
2022/07/25 08:11:17;;;;;;;;;;;;;;;25.64;36.81;100976.72;5036628;28;19936;-51
2022/07/25 08:13:42;;;;;;;;;;;;;;;25.69;36.96;100970.78;5036520;28;19920;-50
2022/07/25 08:16:10;;;;;;;;;;;;;;;25.72;37.01;100963.16;5045441;28;19916;-50
2022/07/25 08:18:36;;;;;;;;;;;;;;;25.77;36.75;100962.63;5039403;28;19916;-51
2022/07/25 08:21:04;;;;;;;;;;;;;;;25.83;36.89;100958.34;5042014;28;19959;-50
2022/07/25 08:23:31;;;;;;;;;;;;;;;25.91;36.71;100960.13;5041619;28;19924;-52
2022/07/25 08:25:57;;;;;;;;;;;;;;;25.96;36.81;100950.44;5040282;28;19964;-55
2022/07/25 08:28:22;;;;;;;;;;;;;;;26.03;36.54;100953.25;5038941;28;19948;-50
2022/07/25 08:30:47;;;;;;;;;;;;;;;26.07;36.60;100954.56;5039046;28;19913;-49
2022/07/25 08:33:14;;;;;;;;;;;;;;;26.13;36.72;100953.81;5044451;28;19923;-50
2022/07/25 08:35:44;;;;;;;;;;;;;;;26.19;36.46;100951.41;5044012;28;19923;-52
2022/07/25 08:38:10;;;;;;;;;;;;;;;26.25;36.58;100950.63;5044583;28;19909;-50
2022/07/25 08:40:35;;;;;;;;;;;;;;;26.29;36.44;100951.94;5039958;28;19924;-50
2022/07/25 08:43:00;;;;;;;;;;;;;;;26.32;36.59;100951.56;5041015;28;19919;-50
2022/07/25 08:45:27;;;;;;;;;;;;;;;26.35;36.42;100943.13;5045020;28;20445;-51
2022/07/25 08:47:53;;;;;;;;;;;;;;;26.40;36.40;100951.47;5045236;28;19915;-49
2022/07/25 08:50:19;;;;;;;;;;;;;;;26.45;36.52;100937.44;5041373;28;19963;-52
2022/07/25 08:52:46;;;;;;;;;;;;;;;26.52;36.39;100942.91;5042920;28;19920;-50
2022/07/25 08:55:14;;;;;;;;;;;;;;;26.60;36.17;100937.38;5040081;28;20280;-51
2022/07/25 08:57:42;;;;;;;;;;;;;;;26.67;36.34;100930.22;5042008;28;19938;-54
2022/07/25 09:00:09;;;;;;;;;;;;;;;26.74;36.00;100931.09;5041483;28;19923;-54
2022/07/25 09:02:34;;;;;;;;;;;;;;;26.78;35.88;100927.00;5044458;28;19947;-50
2022/07/25 09:05:00;;;;;;;;;;;;;;;26.85;36.00;100929.78;5024164;28;19912;-53
2022/07/25 09:07:29;;;;;;;;;;;;;;;26.91;35.78;100922.78;5043406;28;20027;-50
2022/07/25 09:09:54;;;;;;;;;;;;;;;26.97;35.79;100921.19;5029912;28;19912;-50
2022/07/25 09:12:24;;;;;;;;;;;;;;;27.02;35.48;100924.97;5037725;28;19999;-52
2022/07/25 09:14:49;;;;;;;;;;;;;;;27.06;35.82;100920.84;5026764;28;19925;-52
2022/07/25 09:17:14;;;;;;;;;;;;;;;27.10;35.65;100909.69;5035721;28;19916;-51
2022/07/25 09:19:50;;;;;;;;;;;;;;;27.12;35.41;100913.03;5042540;28;20007;-51
2022/07/25 09:22:15;;;;;;;;;;;;;;;27.16;35.43;100907.03;5041725;28;19919;-51
2022/07/25 09:24:43;;;;;;;;;;;;;;;27.20;35.18;100902.91;5040071;28;19920;-52
2022/07/25 09:27:09;;;;;;;;;;;;;;;27.27;35.50;100900.28;5040679;28;19920;-51
2022/07/25 09:29:35;;;;;;;;;;;;;;;27.33;35.16;100895.94;5041728;28;19916;-50
2022/07/25 09:32:01;;;;;;;;;;;;;;;27.39;34.96;100889.75;5045636;28;20293;-51
2022/07/25 09:34:34;;;;;;;;;;;;;;;27.45;35.00;100890.84;5047133;28;19935;-50
2022/07/25 09:37:03;;;;;;;;;;;;;;;27.50;34.97;100885.69;5043602;28;19909;-50
2022/07/25 09:39:45;;;;;;;;;;;;;;;27.57;34.88;100875.78;5042344;28;20007;-54
2022/07/25 09:42:19;;;;;;;;;;;;;;;27.64;34.60;100873.94;5045144;28;19923;-50
2022/07/25 09:45:05;;;;;;;;;;;;;;;27.68;34.89;100875.22;5047107;28;19912;-52
2022/07/25 09:47:31;;;;;;;;;;;;;;;27.72;34.46;100872.13;5047242;28;19940;-50
2022/07/25 09:49:57;;;;;;;;;;;;;;;27.77;34.50;100873.19;5041484;28;20456;-51
2022/07/25 09:52:22;;;;;;;;;;;;;;;27.84;34.85;100870.53;5041905;28;20011;-49
2022/07/25 09:54:48;;;;;;;;;;;;;;;27.90;34.32;100860.75;5043535;28;20380;-50
2022/07/25 09:57:13;;;;;;;;;;;;;;;27.95;34.62;100856.41;5047705;28;20569;-51
2022/07/25 09:59:39;;;;;;;;;;;;;;;28.03;34.55;100858.13;5046321;28;19912;-50
2022/07/25 10:02:09;;;;;;;;;;;;;;;28.07;34.56;100856.69;5046975;28;19908;-50
2022/07/25 10:04:55;;;;;;;;;;;;;;;28.13;34.11;100844.25;5041219;28;19917;-50
2022/07/25 10:07:21;;;;;;;;;;;;;;;28.20;34.33;100845.13;5047919;28;19908;-50
2022/07/25 10:09:48;;;;;;;;;;;;;;;28.23;34.06;100839.28;5039949;28;20327;-50
2022/07/25 10:12:17;;;;;;;;;;;;;;;28.27;34.10;100840.53;5041620;28;20356;-53
2022/07/25 10:15:01;;;;;;;;;;;;;;;28.31;34.20;100840.97;5046232;28;20007;-50
2022/07/25 10:17:27;;;;;;;;;;;;;;;28.36;33.93;100829.56;5043544;28;20387;-52
2022/07/25 10:19:52;;;;;;;;;;;;;;;28.39;34.12;100827.25;5042986;28;19959;-52
2022/07/25 10:22:17;;;;;;;;;;;;;;;28.43;34.17;100815.00;5044593;28;19922;-51
2022/07/25 10:24:44;;;;;;;;;;;;;;;28.51;33.88;100823.94;5041872;28;19992;-50
2022/07/25 10:27:11;;;;;;;;;;;;;;;28.55;33.73;100811.69;5042944;28;19978;-50
2022/07/25 10:29:37;;;;;;;;;;;;;;;28.61;33.58;100810.84;5042827;28;19921;-51
2022/07/25 10:32:06;;;;;;;;;;;;;;;28.65;33.56;100803.97;5045670;28;19927;-53
2022/07/25 10:34:32;;;;;;;;;;;;;;;28.68;33.49;100803.56;5045724;28;20285;-50
2022/07/25 10:37:07;;;;;;;;;;;;;;;28.72;33.79;100799.41;5038959;28;19923;-50
2022/07/25 10:39:36;;;;;;;;;;;;;;;28.76;33.48;100794.44;5043340;28;19955;-51
2022/07/25 10:42:03;;;;;;;;;;;;;;;28.83;33.48;100795.25;5041017;28;19920;-52
2022/07/25 10:44:39;;;;;;;;;;;;;;;28.88;33.44;100791.94;5042640;28;20338;-51
2022/07/25 10:47:05;;;;;;;;;;;;;;;28.94;33.21;100791.09;5046078;28;20307;-51
2022/07/25 10:49:34;;;;;;;;;;;;;;;28.96;33.44;100783.59;5038441;28;19967;-51
2022/07/25 10:52:02;;;;;;;;;;;;;;;29.00;33.36;100774.00;5043847;28;19923;-50
2022/07/25 10:54:35;;;;;;;;;;;;;;;29.05;33.68;100776.06;5036671;28;20379;-52
2022/07/25 10:57:00;;;;;;;;;;;;;;;29.13;33.49;100773.13;5066718;22;20003;-54
2022/07/25 10:59:29;;;;;;;;;;;;;;;29.20;33.05;100771.25;5046496;28;20007;-55
2022/07/25 11:01:54;;;;;;;;;;;;;;;29.24;33.10;100760.81;5046200;28;20321;-54
2022/07/25 11:04:19;;;;;;;;;;;;;;;29.31;32.97;100766.22;5045449;28;19912;-54
2022/07/25 11:06:45;;;;;;;;;;;;;;;29.37;32.93;100757.28;5042631;28;19908;-54
2022/07/25 11:09:14;;;;;;;;;;;;;;;29.42;32.96;100743.09;5026870;28;19917;-55
2022/07/25 11:11:46;;;;;;;;;;;;;;;29.45;33.24;100738.06;5027377;28;19928;-55
2022/07/25 11:14:15;;;;;;;;;;;;;;;29.54;32.75;100740.53;5025321;28;19913;-56
2022/07/25 11:16:41;;;;;;;;;;;;;;;29.60;33.08;100745.94;5028497;28;20261;-56
2022/07/25 11:19:35;;;;;;;;;;;;;;;29.68;33.03;100736.72;5024169;28;19928;-55
2022/07/25 11:22:03;;;;;;;;;;;;;;;29.73;32.52;100722.50;5002614;28;19956;-55
2022/07/25 11:24:42;;;;;;;;;;;;;;;29.79;32.56;100721.66;5030003;28;19923;-55
2022/07/25 11:27:08;;;;;;;;;;;;;;;29.83;32.74;100706.59;5024338;28;19913;-56
2022/07/25 11:29:34;;;;;;;;;;;;;;;29.90;32.55;100711.97;5022596;28;19917;-55
2022/07/25 11:32:09;;;;;;;;;;;;;;;29.95;32.37;100706.78;5026073;28;19935;-57
2022/07/25 11:34:37;;;;;;;;;;;;;;;30.00;32.38;100693.41;5023757;28;19960;-55
2022/07/25 11:37:05;;;;;;;;;;;;;;;30.07;32.19;100693.34;5027045;28;20037;-56
2022/07/25 11:39:32;;;;;;;;;;;;;;;30.15;32.17;100697.69;5023851;28;20536;-56
2022/07/25 11:41:59;;;;;;;;;;;;;;;30.22;32.07;100695.72;5026047;28;20435;-55
2022/07/25 11:44:39;;;;;;;;;;;;;;;30.28;32.46;100684.00;5026128;28;19913;-56
2022/07/25 11:47:06;;;;;;;;;;;;;;;30.34;32.36;100679.56;5024583;28;19917;-55
2022/07/25 11:49:43;;;;;;;;;;;;;;;30.41;32.31;100673.03;5014158;28;19953;-56
2022/07/25 11:52:17;;;;;;;;;;;;;;;30.47;32.13;100675.91;5022604;28;20346;-57
2022/07/25 11:54:49;;;;;;;;;;;;;;;30.52;32.32;100671.47;5026724;28;19917;-57
2022/07/25 11:57:19;;;;;;;;;;;;;;;30.58;32.35;100661.63;5025220;28;19913;-55
2022/07/25 11:59:44;;;;;;;;;;;;;;;30.63;32.20;100653.63;5023989;28;19974;-57
2022/07/25 12:02:19;;;;;;;;;;;;;;;30.71;32.13;100657.94;5019871;28;20010;-58
2022/07/25 12:04:52;;;;;;;;;;;;;;;30.78;31.66;100649.75;5024953;28;19980;-56
2022/07/25 12:07:17;;;;;;;;;;;;;;;30.87;31.69;100646.47;5022312;28;19998;-56
2022/07/25 12:09:42;;;;;;;;;;;;;;;30.96;31.80;100633.41;5021496;28;19976;-57
2022/07/25 12:12:08;;;;;;;;;;;;;;;31.05;31.96;100639.38;5021878;28;20269;-57
2022/07/25 12:14:42;;;;;;;;;;;;;;;31.13;31.65;100641.00;5021379;28;19917;-57
2022/07/25 12:17:08;;;;;;;;;;;;;;;31.20;31.76;100639.03;5024456;28;20012;-57
2022/07/25 12:19:33;;;;;;;;;;;;;;;31.24;31.41;100640.22;5021968;28;20059;-57
2022/07/25 12:21:58;;;;;;;;;;;;;;;31.29;31.31;100632.22;5025510;28;20424;-56
2022/07/25 12:24:24;;;;;;;;;;;;;;;31.30;31.31;100617.56;5021364;28;19917;-57
2022/07/25 12:26:49;;;;;;;;;;;;;;;31.32;31.54;100620.88;5023440;28;19915;-55
2022/07/25 12:29:14;;;;;;;;;;;;;;;31.35;31.42;100621.47;5024608;28;20330;-55
2022/07/25 12:31:39;;;;;;;;;;;;;;;31.35;31.30;100618.75;5020049;28;19920;-57
2022/07/25 12:34:05;;;;;;;;;;;;;;;31.38;31.28;100619.13;5024653;28;19928;-57
2022/07/25 12:36:30;;;;;;;;;;;;;;;31.40;31.21;100618.88;5022741;28;19921;-55